sensor_id;sensor_type;location;lat;lon;timestamp;P1;durP1;ratioP1;P2;durP2;ratioP2
57323;SDS011;43160;51.008;18.248;2024-03-06T00:09:01;34.60;;;6.90;;
57323;SDS011;43160;51.008;18.248;2024-03-06T00:18:47;36.00;;;11.20;;
57323;SDS011;43160;51.008;18.248;2024-03-06T00:28:30;46.40;;;14.30;;
57323;SDS011;43160;51.008;18.248;2024-03-06T00:38:14;38.20;;;11.00;;
57323;SDS011;43160;51.008;18.248;2024-03-06T00:47:58;35.80;;;11.00;;
57323;SDS011;43160;51.008;18.248;2024-03-06T00:57:41;26.60;;;10.20;;
57323;SDS011;43160;51.008;18.248;2024-03-06T01:07:29;45.70;;;15.90;;
57323;SDS011;43160;51.008;18.248;2024-03-06T01:17:16;40.80;;;12.90;;
57323;SDS011;43160;51.008;18.248;2024-03-06T01:27:02;37.40;;;11.50;;
57323;SDS011;43160;51.008;18.248;2024-03-06T01:36:45;31.30;;;10.90;;
57323;SDS011;43160;51.008;18.248;2024-03-06T01:46:31;34.10;;;12.20;;
57323;SDS011;43160;51.008;18.248;2024-03-06T01:56:15;49.90;;;13.80;;
57323;SDS011;43160;51.008;18.248;2024-03-06T02:06:00;42.30;;;11.70;;
57323;SDS011;43160;51.008;18.248;2024-03-06T02:15:47;33.90;;;10.00;;
57323;SDS011;43160;51.008;18.248;2024-03-06T02:25:31;25.40;;;8.90;;
57323;SDS011;43160;51.008;18.248;2024-03-06T02:35:16;36.00;;;13.40;;
57323;SDS011;43160;51.008;18.248;2024-03-06T02:45:05;54.70;;;16.80;;
57323;SDS011;43160;51.008;18.248;2024-03-06T02:54:50;46.30;;;14.70;;
57323;SDS011;43160;51.008;18.248;2024-03-06T03:04:33;37.40;;;13.10;;
57323;SDS011;43160;51.008;18.248;2024-03-06T03:14:17;41.80;;;12.20;;
57323;SDS011;43160;51.008;18.248;2024-03-06T03:24:01;38.20;;;14.10;;
57323;SDS011;43160;51.008;18.248;2024-03-06T03:33:43;31.80;;;12.20;;
57323;SDS011;43160;51.008;18.248;2024-03-06T03:43:39;47.40;;;14.90;;
57323;SDS011;43160;51.008;18.248;2024-03-06T03:53:28;31.60;;;11.40;;
57323;SDS011;43160;51.008;18.248;2024-03-06T04:03:12;40.10;;;13.10;;
57323;SDS011;43160;51.008;18.248;2024-03-06T04:12:58;44.90;;;15.80;;
57323;SDS011;43160;51.008;18.248;2024-03-06T04:22:44;42.80;;;14.30;;
57323;SDS011;43160;51.008;18.248;2024-03-06T04:32:29;45.80;;;13.40;;
57323;SDS011;43160;51.008;18.248;2024-03-06T04:42:13;46.60;;;14.00;;
57323;SDS011;43160;51.008;18.248;2024-03-06T04:52:02;48.00;;;17.30;;
57323;SDS011;43160;51.008;18.248;2024-03-06T05:01:46;31.20;;;10.10;;
57323;SDS011;43160;51.008;18.248;2024-03-06T05:11:31;45.20;;;14.20;;
57323;SDS011;43160;51.008;18.248;2024-03-06T05:21:21;54.40;;;15.60;;
57323;SDS011;43160;51.008;18.248;2024-03-06T05:31:15;59.40;;;17.50;;
57323;SDS011;43160;51.008;18.248;2024-03-06T05:41:07;53.10;;;18.00;;
57323;SDS011;43160;51.008;18.248;2024-03-06T05:50:52;36.80;;;13.70;;
57323;SDS011;43160;51.008;18.248;2024-03-06T06:00:36;34.20;;;12.60;;
57323;SDS011;43160;51.008;18.248;2024-03-06T06:10:20;24.70;;;11.90;;
57323;SDS011;43160;51.008;18.248;2024-03-06T06:20:06;41.40;;;13.70;;
57323;SDS011;43160;51.008;18.248;2024-03-06T06:29:55;56.80;;;15.30;;
57323;SDS011;43160;51.008;18.248;2024-03-06T06:39:40;34.70;;;13.60;;
57323;SDS011;43160;51.008;18.248;2024-03-06T06:49:24;65.50;;;21.30;;
57323;SDS011;43160;51.008;18.248;2024-03-06T06:59:07;51.70;;;19.10;;
57323;SDS011;43160;51.008;18.248;2024-03-06T07:08:51;67.10;;;22.70;;
57323;SDS011;43160;51.008;18.248;2024-03-06T07:18:36;116.90;;;28.90;;
57323;SDS011;43160;51.008;18.248;2024-03-06T07:28:20;62.20;;;23.30;;
57323;SDS011;43160;51.008;18.248;2024-03-06T07:38:05;84.50;;;22.90;;
57323;SDS011;43160;51.008;18.248;2024-03-06T07:47:51;168.10;;;33.80;;
57323;SDS011;43160;51.008;18.248;2024-03-06T07:57:36;130.00;;;30.90;;
57323;SDS011;43160;51.008;18.248;2024-03-06T08:07:41;67.10;;;21.00;;
57323;SDS011;43160;51.008;18.248;2024-03-06T08:17:38;69.00;;;24.90;;
57323;SDS011;43160;51.008;18.248;2024-03-06T08:27:36;78.30;;;22.30;;
57323;SDS011;43160;51.008;18.248;2024-03-06T08:37:28;81.90;;;23.00;;
57323;SDS011;43160;51.008;18.248;2024-03-06T08:47:11;35.00;;;13.00;;
57323;SDS011;43160;51.008;18.248;2024-03-06T08:56:56;79.40;;;30.10;;
57323;SDS011;43160;51.008;18.248;2024-03-06T09:06:47;85.40;;;29.60;;
57323;SDS011;43160;51.008;18.248;2024-03-06T09:16:34;75.30;;;26.60;;
57323;SDS011;43160;51.008;18.248;2024-03-06T09:26:19;77.40;;;31.90;;
57323;SDS011;43160;51.008;18.248;2024-03-06T09:36:10;70.00;;;27.00;;
57323;SDS011;43160;51.008;18.248;2024-03-06T09:45:58;63.60;;;22.90;;
57323;SDS011;43160;51.008;18.248;2024-03-06T09:55:42;54.20;;;25.60;;
57323;SDS011;43160;51.008;18.248;2024-03-06T10:05:28;56.50;;;24.90;;
57323;SDS011;43160;51.008;18.248;2024-03-06T10:15:15;46.00;;;19.90;;
57323;SDS011;43160;51.008;18.248;2024-03-06T10:25:18;54.90;;;21.90;;
57323;SDS011;43160;51.008;18.248;2024-03-06T10:35:17;53.70;;;22.10;;
57323;SDS011;43160;51.008;18.248;2024-03-06T10:45:08;27.40;;;11.60;;
57323;SDS011;43160;51.008;18.248;2024-03-06T10:54:58;47.50;;;19.90;;
57323;SDS011;43160;51.008;18.248;2024-03-06T11:04:42;72.00;;;22.80;;
57323;SDS011;43160;51.008;18.248;2024-03-06T11:14:32;48.00;;;20.80;;
57323;SDS011;43160;51.008;18.248;2024-03-06T11:24:22;48.50;;;20.50;;
57323;SDS011;43160;51.008;18.248;2024-03-06T11:34:28;60.90;;;23.20;;
57323;SDS011;43160;51.008;18.248;2024-03-06T11:44:21;41.50;;;18.10;;
57323;SDS011;43160;51.008;18.248;2024-03-06T11:54:09;54.50;;;21.10;;
57323;SDS011;43160;51.008;18.248;2024-03-06T12:03:55;44.80;;;19.80;;
57323;SDS011;43160;51.008;18.248;2024-03-06T12:13:41;57.20;;;18.80;;
57323;SDS011;43160;51.008;18.248;2024-03-06T12:23:28;64.90;;;22.30;;
57323;SDS011;43160;51.008;18.248;2024-03-06T12:33:21;49.80;;;23.60;;
57323;SDS011;43160;51.008;18.248;2024-03-06T12:43:06;62.50;;;21.90;;
57323;SDS011;43160;51.008;18.248;2024-03-06T12:52:50;87.20;;;27.00;;
57323;SDS011;43160;51.008;18.248;2024-03-06T13:02:41;69.00;;;25.40;;
57323;SDS011;43160;51.008;18.248;2024-03-06T13:12:28;50.40;;;18.80;;
57323;SDS011;43160;51.008;18.248;2024-03-06T13:22:12;67.00;;;22.10;;
57323;SDS011;43160;51.008;18.248;2024-03-06T13:31:56;44.60;;;15.00;;
57323;SDS011;43160;51.008;18.248;2024-03-06T13:41:40;63.10;;;23.20;;
57323;SDS011;43160;51.008;18.248;2024-03-06T13:51:25;68.20;;;21.30;;
57323;SDS011;43160;51.008;18.248;2024-03-06T14:01:09;51.40;;;16.30;;
57323;SDS011;43160;51.008;18.248;2024-03-06T14:10:55;63.80;;;20.30;;
57323;SDS011;43160;51.008;18.248;2024-03-06T14:20:39;68.70;;;24.30;;
57323;SDS011;43160;51.008;18.248;2024-03-06T14:23:05;181.90;;;48.10;;
57323;SDS011;43160;51.008;18.248;2024-03-06T14:32:52;101.40;;;27.20;;
57323;SDS011;43160;51.008;18.248;2024-03-06T14:42:36;85.00;;;25.30;;
57323;SDS011;43160;51.008;18.248;2024-03-06T14:52:23;62.90;;;18.70;;
57323;SDS011;43160;51.008;18.248;2024-03-06T15:02:06;72.30;;;22.50;;
57323;SDS011;43160;51.008;18.248;2024-03-06T15:09:25;388.00;;;57.00;;
57323;SDS011;43160;51.008;18.248;2024-03-06T15:19:10;142.30;;;30.60;;
57323;SDS011;43160;51.008;18.248;2024-03-06T15:28:53;87.40;;;27.80;;
57323;SDS011;43160;51.008;18.248;2024-03-06T15:38:44;105.40;;;28.80;;
57323;SDS011;43160;51.008;18.248;2024-03-06T15:48:27;177.90;;;33.40;;
57323;SDS011;43160;51.008;18.248;2024-03-06T15:58:13;153.70;;;34.00;;
57323;SDS011;43160;51.008;18.248;2024-03-06T16:08:00;166.90;;;36.20;;
57323;SDS011;43160;51.008;18.248;2024-03-06T16:17:45;235.60;;;37.90;;
57323;SDS011;43160;51.008;18.248;2024-03-06T16:27:28;113.10;;;26.20;;
57323;SDS011;43160;51.008;18.248;2024-03-06T16:37:12;125.50;;;30.60;;
57323;SDS011;43160;51.008;18.248;2024-03-06T16:46:55;94.40;;;28.30;;
57323;SDS011;43160;51.008;18.248;2024-03-06T16:56:39;118.40;;;34.50;;
57323;SDS011;43160;51.008;18.248;2024-03-06T17:06:25;89.60;;;25.80;;
57323;SDS011;43160;51.008;18.248;2024-03-06T17:16:08;119.10;;;31.20;;
57323;SDS011;43160;51.008;18.248;2024-03-06T17:25:53;62.70;;;22.20;;
57323;SDS011;43160;51.008;18.248;2024-03-06T17:35:44;47.50;;;16.60;;
57323;SDS011;43160;51.008;18.248;2024-03-06T17:45:40;112.10;;;29.60;;
57323;SDS011;43160;51.008;18.248;2024-03-06T17:55:25;94.50;;;26.80;;
57323;SDS011;43160;51.008;18.248;2024-03-06T18:05:09;79.20;;;22.40;;
57323;SDS011;43160;51.008;18.248;2024-03-06T18:14:56;69.40;;;24.40;;
57323;SDS011;43160;51.008;18.248;2024-03-06T18:24:45;90.80;;;23.40;;
57323;SDS011;43160;51.008;18.248;2024-03-06T18:34:29;96.00;;;24.20;;
57323;SDS011;43160;51.008;18.248;2024-03-06T18:44:16;58.60;;;21.00;;
57323;SDS011;43160;51.008;18.248;2024-03-06T18:54:01;44.60;;;17.60;;
57323;SDS011;43160;51.008;18.248;2024-03-06T19:03:48;65.40;;;18.90;;
57323;SDS011;43160;51.008;18.248;2024-03-06T19:13:31;28.00;;;12.80;;
57323;SDS011;43160;51.008;18.248;2024-03-06T19:23:15;37.30;;;13.20;;
57323;SDS011;43160;51.008;18.248;2024-03-06T19:32:58;51.60;;;17.90;;
57323;SDS011;43160;51.008;18.248;2024-03-06T19:42:44;49.80;;;19.30;;
57323;SDS011;43160;51.008;18.248;2024-03-06T19:52:30;50.30;;;21.60;;
57323;SDS011;43160;51.008;18.248;2024-03-06T20:02:14;68.80;;;21.80;;
57323;SDS011;43160;51.008;18.248;2024-03-06T20:11:57;53.40;;;20.50;;
57323;SDS011;43160;51.008;18.248;2024-03-06T20:21:42;48.20;;;19.80;;
57323;SDS011;43160;51.008;18.248;2024-03-06T20:31:32;39.30;;;14.80;;
57323;SDS011;43160;51.008;18.248;2024-03-06T20:41:16;64.90;;;21.70;;
57323;SDS011;43160;51.008;18.248;2024-03-06T20:51:03;45.60;;;16.30;;
57323;SDS011;43160;51.008;18.248;2024-03-06T21:00:46;57.10;;;17.40;;
57323;SDS011;43160;51.008;18.248;2024-03-06T21:10:33;54.20;;;18.90;;
57323;SDS011;43160;51.008;18.248;2024-03-06T21:20:20;61.00;;;20.90;;
57323;SDS011;43160;51.008;18.248;2024-03-06T21:37:29;49.90;;;17.30;;
57323;SDS011;43160;51.008;18.248;2024-03-06T21:47:16;47.10;;;14.90;;
57323;SDS011;43160;51.008;18.248;2024-03-06T21:57:09;44.20;;;16.50;;
57323;SDS011;43160;51.008;18.248;2024-03-06T22:06:58;41.30;;;17.50;;
57323;SDS011;43160;51.008;18.248;2024-03-06T22:16:43;55.10;;;16.70;;
57323;SDS011;43160;51.008;18.248;2024-03-06T22:26:27;45.30;;;13.80;;
57323;SDS011;43160;51.008;18.248;2024-03-06T22:36:17;52.60;;;15.60;;
57323;SDS011;43160;51.008;18.248;2024-03-06T22:46:10;47.00;;;16.10;;
57323;SDS011;43160;51.008;18.248;2024-03-06T22:55:53;42.20;;;18.60;;
57323;SDS011;43160;51.008;18.248;2024-03-06T23:05:40;38.80;;;16.00;;
57323;SDS011;43160;51.008;18.248;2024-03-06T23:15:25;11.10;;;3.50;;
57323;SDS011;43160;51.008;18.248;2024-03-06T23:25:10;41.80;;;15.90;;
57323;SDS011;43160;51.008;18.248;2024-03-06T23:35:04;43.80;;;17.80;;
57323;SDS011;43160;51.008;18.248;2024-03-06T23:45:02;41.90;;;16.30;;
57323;SDS011;43160;51.008;18.248;2024-03-06T23:54:50;37.20;;;15.60;;
